createdAt,value
2022-12-31T00:01:43.849Z,27.4
2022-12-31T00:06:45.880Z,27
2022-12-31T00:11:47.969Z,28.3
2022-12-31T00:16:50.163Z,28.1
2022-12-31T00:21:52.339Z,27.8
2022-12-31T00:26:54.539Z,25.8
2022-12-31T00:31:56.722Z,25.6
2022-12-31T00:36:58.819Z,26.5
2022-12-31T00:42:00.931Z,27.1
2022-12-31T00:47:03.013Z,27.9
2022-12-31T00:52:05.106Z,28.1
2022-12-31T00:57:07.202Z,28.8
2022-12-31T01:02:09.791Z,28.8
2022-12-31T01:07:12.630Z,30.5
2022-12-31T01:12:14.800Z,31.1
2022-12-31T01:17:16.902Z,32.6
2022-12-31T01:22:19.094Z,32.9
2022-12-31T01:27:21.690Z,32.5
2022-12-31T01:32:24.496Z,33.4
2022-12-31T01:37:26.570Z,33
2022-12-31T01:42:28.798Z,33.5
2022-12-31T01:47:30.785Z,32.9
2022-12-31T01:52:32.912Z,32.4
2022-12-31T01:57:35.091Z,33.7
2022-12-31T02:02:37.486Z,32.8
2022-12-31T02:07:40.239Z,32.5
2022-12-31T02:12:42.731Z,32.4
2022-12-31T02:17:44.855Z,34.9
2022-12-31T02:22:47.030Z,32.2
2022-12-31T02:27:49.533Z,32.6
2022-12-31T02:32:51.736Z,33.5
2022-12-31T02:37:53.799Z,32.9
2022-12-31T02:42:56.855Z,32.3
2022-12-31T02:47:59.125Z,32.1
2022-12-31T02:53:01.153Z,33.7
2022-12-31T02:58:03.246Z,32.7
2022-12-31T03:03:05.449Z,32.3
2022-12-31T03:08:07.705Z,32.2
2022-12-31T03:13:09.859Z,33
2022-12-31T03:18:11.892Z,32
2022-12-31T03:23:13.962Z,30.9
2022-12-31T03:28:16.258Z,31.8
2022-12-31T03:33:18.438Z,31.4
2022-12-31T03:38:20.563Z,32
2022-12-31T03:43:22.653Z,33.4
2022-12-31T03:48:25.419Z,29.6
2022-12-31T03:53:27.504Z,30.7
2022-12-31T03:58:29.740Z,30.7
2022-12-31T04:03:32.029Z,30.5
2022-12-31T04:08:34.141Z,30.9
2022-12-31T04:13:36.331Z,30.6
2022-12-31T04:18:38.359Z,30.6
2022-12-31T04:23:40.586Z,30.4
2022-12-31T04:28:42.657Z,29.9
2022-12-31T04:33:44.904Z,30.6
2022-12-31T04:38:46.905Z,30.1
2022-12-31T04:43:49.145Z,29
2022-12-31T04:48:51.186Z,30.6
2022-12-31T04:53:53.692Z,29.2
2022-12-31T04:58:55.793Z,28.4
2022-12-31T05:03:58.486Z,28.8
2022-12-31T05:09:00.854Z,32.1
2022-12-31T05:14:03.404Z,28.5
2022-12-31T05:19:05.442Z,27.7
2022-12-31T05:24:07.702Z,27.7
2022-12-31T05:29:10.048Z,27.2
2022-12-31T05:34:12.301Z,27.5
2022-12-31T05:39:14.539Z,27.3
2022-12-31T05:44:16.596Z,25.6
2022-12-31T05:49:18.587Z,39.9
2022-12-31T05:54:20.708Z,24.5
2022-12-31T05:59:29.153Z,23
2022-12-31T06:04:31.407Z,23
2022-12-31T06:09:33.478Z,33
2022-12-31T06:14:37.615Z,23.6
2022-12-31T06:19:37.566Z,25
2022-12-31T06:24:39.619Z,25.5
2022-12-31T06:29:41.652Z,26.3
2022-12-31T06:34:43.815Z,26.3
2022-12-31T06:39:45.827Z,27
2022-12-31T06:44:47.879Z,26.4
2022-12-31T06:49:50.358Z,26.5
2022-12-31T06:54:52.555Z,26.2
2022-12-31T06:59:54.627Z,25.5
2022-12-31T07:04:56.735Z,22.2
2022-12-31T07:09:58.826Z,21.3
2022-12-31T07:15:00.966Z,27.7
2022-12-31T07:20:03.047Z,24.2
2022-12-31T07:25:05.061Z,24.9
2022-12-31T07:30:07.464Z,26.5
2022-12-31T07:35:10.071Z,25.6
2022-12-31T07:40:12.054Z,23.9
2022-12-31T07:45:14.544Z,22.8
2022-12-31T07:50:16.872Z,20.3
2022-12-31T07:55:19.221Z,19.4
2022-12-31T08:00:21.465Z,18
2022-12-31T08:05:23.773Z,17.6
2022-12-31T08:10:25.851Z,17.8
2022-12-31T08:15:31.579Z,18.6
2022-12-31T08:20:34.026Z,17.4
2022-12-31T08:25:36.184Z,20
2022-12-31T08:30:38.302Z,18.4
2022-12-31T08:35:40.902Z,18.9
2022-12-31T08:40:42.919Z,20.2
2022-12-31T08:45:45.667Z,18.7
2022-12-31T08:50:48.143Z,19
2022-12-31T08:55:50.213Z,19.1
2022-12-31T09:00:52.294Z,22
2022-12-31T09:05:54.553Z,18.9
2022-12-31T09:10:56.525Z,17.7
2022-12-31T09:15:58.630Z,17
2022-12-31T09:21:00.633Z,17.3
2022-12-31T09:26:02.670Z,18.8
2022-12-31T09:31:04.778Z,30.4
2022-12-31T09:36:06.943Z,36.1
2022-12-31T09:41:08.980Z,21.7
2022-12-31T09:46:11.555Z,21.4
2022-12-31T09:51:21.729Z,35.7
2022-12-31T09:56:21.199Z,23.7
2022-12-31T10:01:23.822Z,23.4
2022-12-31T10:06:26.287Z,23.1
2022-12-31T10:11:28.286Z,21.1
2022-12-31T10:16:30.273Z,18.1
2022-12-31T10:21:32.289Z,13
2022-12-31T10:26:34.305Z,8.1
2022-12-31T10:31:36.353Z,8
2022-12-31T10:36:38.530Z,7.9
2022-12-31T10:41:40.597Z,8.7
2022-12-31T10:46:42.632Z,8.9
2022-12-31T10:51:44.762Z,8.8
2022-12-31T10:56:46.779Z,9.1
2022-12-31T11:01:49.125Z,9.5
2022-12-31T11:06:51.617Z,8.4
2022-12-31T11:11:53.664Z,8.1
2022-12-31T11:16:55.666Z,8.1
2022-12-31T11:21:57.997Z,8
2022-12-31T11:26:59.932Z,7.9
2022-12-31T11:32:01.921Z,7.3
2022-12-31T11:37:04.111Z,7.7
2022-12-31T11:42:06.064Z,7.4
2022-12-31T11:47:07.999Z,7
2022-12-31T11:52:09.955Z,6.7
2022-12-31T11:57:11.990Z,6.1
2022-12-31T12:02:14.340Z,6.5
2022-12-31T12:07:16.502Z,6.5
2022-12-31T12:12:18.598Z,5.9
2022-12-31T12:17:20.503Z,6.3
2022-12-31T12:22:22.525Z,5.6
2022-12-31T12:27:24.468Z,5.6
2022-12-31T12:32:26.378Z,5
2022-12-31T12:37:28.425Z,5
2022-12-31T12:42:31.281Z,4.8
2022-12-31T12:47:33.578Z,4.7
2022-12-31T12:52:35.555Z,4.9
2022-12-31T12:57:37.704Z,4.4
2022-12-31T13:02:40.291Z,3.9
2022-12-31T13:07:42.583Z,4.2
2022-12-31T13:13:24.503Z,4.1
2022-12-31T13:17:57.378Z,4.7
2022-12-31T13:22:58.332Z,4.7
2022-12-31T13:28:01.719Z,3.7
2022-12-31T13:33:03.813Z,3.6
2022-12-31T13:38:06.881Z,3.9
2022-12-31T13:43:09.188Z,3.8
2022-12-31T13:48:11.116Z,3.6
2022-12-31T13:53:13.073Z,4.9
2022-12-31T13:58:14.976Z,3.7
2022-12-31T14:03:17.148Z,3.7
2022-12-31T14:08:19.403Z,3.8
2022-12-31T14:13:21.457Z,4.1
2022-12-31T14:18:23.671Z,4.2
2022-12-31T14:23:25.710Z,4
2022-12-31T14:28:27.705Z,4.5
2022-12-31T14:33:29.964Z,4.1
2022-12-31T14:38:32.110Z,4.3
2022-12-31T14:43:34.126Z,4.2
2022-12-31T14:48:36.220Z,6.4
2022-12-31T14:53:36.695Z,4.1
2022-12-31T14:58:38.719Z,4
2022-12-31T15:03:46.532Z,4.3
2022-12-31T15:08:49.118Z,4.3
2022-12-31T15:13:53.030Z,4.4
2022-12-31T15:18:55.835Z,4.3
2022-12-31T15:23:58.035Z,4.7
2022-12-31T15:29:00.057Z,4.6
2022-12-31T15:34:02.717Z,4.6
2022-12-31T15:39:05.424Z,5.1
2022-12-31T15:44:08.097Z,4.7
2022-12-31T15:49:16.458Z,4.5
2022-12-31T15:54:18.950Z,5
2022-12-31T15:59:21.180Z,5.3
2022-12-31T16:04:25.169Z,10.1
2022-12-31T16:09:25.722Z,6.3
2022-12-31T16:14:28.076Z,6.4
2022-12-31T16:19:30.415Z,7.8
2022-12-31T16:24:32.482Z,9.3
2022-12-31T16:29:43.987Z,8.8
2022-12-31T16:34:46.234Z,8.2
2022-12-31T16:39:48.710Z,8.6
2022-12-31T16:44:53.658Z,12.1
2022-12-31T16:49:55.878Z,9.4
2022-12-31T16:54:58.045Z,12
2022-12-31T17:00:00.189Z,13.7
2022-12-31T17:05:02.354Z,13.5
2022-12-31T17:10:04.375Z,11.6
2022-12-31T17:15:06.435Z,11.7
2022-12-31T17:20:08.502Z,12.1
2022-12-31T17:25:10.534Z,11.9
2022-12-31T17:30:13.416Z,11.8
2022-12-31T17:35:15.504Z,13.6
2022-12-31T17:40:51.829Z,11.8
2022-12-31T17:45:24.928Z,11.5
2022-12-31T17:50:27.293Z,10.6
2022-12-31T17:55:29.433Z,10.2
2022-12-31T18:00:31.511Z,19.6
2022-12-31T18:05:34.035Z,20.7
2022-12-31T18:10:36.135Z,17.1
2022-12-31T18:15:38.439Z,12.1
2022-12-31T18:20:40.478Z,11.5
2022-12-31T18:30:52.308Z,12.4
2022-12-31T18:36:11.493Z,11.8
2022-12-31T18:41:03.994Z,13.9
2022-12-31T18:46:06.298Z,18.9
2022-12-31T18:51:08.623Z,19.5
2022-12-31T18:56:10.677Z,12.3
2022-12-31T19:01:12.882Z,9.8
2022-12-31T19:06:15.820Z,8.8
2022-12-31T19:11:18.093Z,8
2022-12-31T19:16:20.243Z,8.1
2022-12-31T19:21:22.540Z,8
2022-12-31T19:26:24.576Z,7.8
2022-12-31T19:31:27.204Z,8.5
2022-12-31T19:36:29.578Z,8.6
2022-12-31T19:41:31.769Z,8.3
2022-12-31T19:46:33.876Z,7.8
2022-12-31T19:51:35.867Z,9.7
2022-12-31T19:56:37.952Z,7.7
2022-12-31T20:01:40.480Z,10.4
2022-12-31T20:06:43.447Z,10.9
2022-12-31T20:11:45.625Z,11.6
2022-12-31T20:16:47.928Z,10.4
2022-12-31T20:21:50.963Z,9.5
2022-12-31T20:26:53.072Z,9.3
2022-12-31T20:31:55.737Z,12.2
2022-12-31T20:36:58.113Z,9
2022-12-31T20:42:00.211Z,7.8
2022-12-31T20:47:02.451Z,7.5
2022-12-31T20:52:04.703Z,6.6
2022-12-31T20:57:07.512Z,8
2022-12-31T21:02:26.483Z,13
2022-12-31T21:07:16.377Z,7.5
2022-12-31T21:12:18.685Z,7.9
2022-12-31T21:17:20.835Z,8.5
2022-12-31T21:22:23.048Z,8.8
2022-12-31T21:27:25.036Z,8.8
2022-12-31T21:32:27.288Z,14
2022-12-31T21:38:00.660Z,8.9
2022-12-31T21:42:33.274Z,8.3
2022-12-31T21:47:47.061Z,7.5
2022-12-31T21:52:39.791Z,7.9
2022-12-31T21:58:31.749Z,7.3
2022-12-31T22:03:00.271Z,6.8
2022-12-31T22:07:53.193Z,6.4
2022-12-31T22:12:55.505Z,6.5
2022-12-31T22:17:58.143Z,6.2
2022-12-31T22:23:00.222Z,5.7
2022-12-31T22:28:39.686Z,5.7
2022-12-31T22:33:12.135Z,5.4
2022-12-31T22:38:14.047Z,5.6
2022-12-31T22:43:16.303Z,6.1
2022-12-31T22:48:18.497Z,6
2022-12-31T22:53:20.490Z,5.6
2022-12-31T22:58:22.738Z,6.8
2022-12-31T23:03:24.761Z,8
2022-12-31T23:08:27.038Z,7.7
2022-12-31T23:13:29.133Z,9.9
2022-12-31T23:18:31.182Z,11.6
2022-12-31T23:23:33.153Z,20.8
2022-12-31T23:28:35.123Z,17.9
2022-12-31T23:33:37.159Z,14.3
2022-12-31T23:38:39.161Z,11.4
2022-12-31T23:43:41.473Z,10.4
2022-12-31T23:48:43.437Z,8.9
2022-12-31T23:53:45.460Z,7.7
2022-12-31T23:58:47.502Z,6.9
